sensor_id;sensor_type;location;lat;lon;timestamp;pressure;altitude;pressure_sealevel;temperature;humidity
40013;BME280;37387;42.672;23.334;2023-04-26T00:00:32;935.0;;;8.4;100.0
40013;BME280;37387;42.672;23.334;2023-04-26T00:09:32;934.9;;;8.3;100.0
40013;BME280;37387;42.672;23.334;2023-04-26T00:11:32;934.9;;;8.2;100.0
40013;BME280;37387;42.672;23.334;2023-04-26T00:15:32;934.8;;;8.1;100.0
40013;BME280;37387;42.672;23.334;2023-04-26T00:20:32;934.7;;;8.0;100.0
40013;BME280;37387;42.672;23.334;2023-04-26T00:23:32;934.7;;;7.9;100.0
40013;BME280;37387;42.672;23.334;2023-04-26T00:33:32;934.7;;;7.8;100.0
40013;BME280;37387;42.672;23.334;2023-04-26T00:35:32;934.6;;;7.9;100.0
40013;BME280;37387;42.672;23.334;2023-04-26T00:44:32;934.6;;;7.8;100.0
40013;BME280;37387;42.672;23.334;2023-04-26T00:49:32;934.6;;;7.7;100.0
40013;BME280;37387;42.672;23.334;2023-04-26T01:02:32;934.6;;;7.6;100.0
40013;BME280;37387;42.672;23.334;2023-04-26T01:06:33;934.6;;;7.7;100.0
40013;BME280;37387;42.672;23.334;2023-04-26T01:07:32;934.6;;;7.6;100.0
40013;BME280;37387;42.672;23.334;2023-04-26T01:09:33;934.7;;;7.5;100.0
40013;BME280;37387;42.672;23.334;2023-04-26T01:13:32;934.7;;;7.6;100.0
40013;BME280;37387;42.672;23.334;2023-04-26T01:18:33;934.7;;;7.5;100.0
40013;BME280;37387;42.672;23.334;2023-04-26T01:21:32;934.7;;;7.4;100.0
40013;BME280;37387;42.672;23.334;2023-04-26T01:25:32;934.5;;;7.3;100.0
40013;BME280;37387;42.672;23.334;2023-04-26T01:30:32;934.4;;;7.2;100.0
40013;BME280;37387;42.672;23.334;2023-04-26T01:32:32;934.5;;;7.3;100.0
40013;BME280;37387;42.672;23.334;2023-04-26T01:46:32;934.5;;;7.4;100.0
40013;BME280;37387;42.672;23.334;2023-04-26T01:50:32;934.7;;;7.5;100.0
40013;BME280;37387;42.672;23.334;2023-04-26T01:55:32;934.6;;;7.6;100.0
40013;BME280;37387;42.672;23.334;2023-04-26T01:57:32;934.6;;;7.5;100.0
40013;BME280;37387;42.672;23.334;2023-04-26T02:01:32;934.5;;;7.4;100.0
40013;BME280;37387;42.672;23.334;2023-04-26T02:03:32;934.5;;;7.3;100.0
40013;BME280;37387;42.672;23.334;2023-04-26T02:08:32;934.4;;;7.2;100.0
40013;BME280;37387;42.672;23.334;2023-04-26T02:11:32;934.4;;;7.1;100.0
40013;BME280;37387;42.672;23.334;2023-04-26T02:12:32;934.5;;;7.0;100.0
40013;BME280;37387;42.672;23.334;2023-04-26T02:17:32;934.4;;;7.1;100.0
40013;BME280;37387;42.672;23.334;2023-04-26T02:30:32;934.3;;;7.0;100.0
40013;BME280;37387;42.672;23.334;2023-04-26T02:31:32;934.4;;;6.9;100.0
40013;BME280;37387;42.672;23.334;2023-04-26T02:32:32;934.4;;;6.7;100.0
40013;BME280;37387;42.672;23.334;2023-04-26T02:33:33;934.4;;;6.8;100.0
40013;BME280;37387;42.672;23.334;2023-04-26T02:34:32;934.4;;;6.9;100.0
40013;BME280;37387;42.672;23.334;2023-04-26T02:35:32;934.4;;;7.0;100.0
40013;BME280;37387;42.672;23.334;2023-04-26T02:42:32;934.5;;;7.1;100.0
40013;BME280;37387;42.672;23.334;2023-04-26T02:46:32;934.4;;;7.2;100.0
40013;BME280;37387;42.672;23.334;2023-04-26T02:50:32;934.4;;;7.3;100.0
40013;BME280;37387;42.672;23.334;2023-04-26T02:51:32;934.3;;;7.2;100.0
40013;BME280;37387;42.672;23.334;2023-04-26T02:53:32;934.3;;;7.3;100.0
40013;BME280;37387;42.672;23.334;2023-04-26T02:58:32;934.2;;;7.4;100.0
40013;BME280;37387;42.672;23.334;2023-04-26T03:00:32;934.2;;;7.5;100.0
40013;BME280;37387;42.672;23.334;2023-04-26T03:03:32;934.2;;;7.6;100.0
40013;BME280;37387;42.672;23.334;2023-04-26T03:04:32;934.2;;;7.5;100.0
40013;BME280;37387;42.672;23.334;2023-04-26T03:05:32;934.3;;;7.6;100.0
40013;BME280;37387;42.672;23.334;2023-04-26T03:12:32;934.3;;;7.7;100.0
40013;BME280;37387;42.672;23.334;2023-04-26T03:19:32;934.2;;;7.8;100.0
40013;BME280;37387;42.672;23.334;2023-04-26T03:26:32;934.3;;;7.7;100.0
40013;BME280;37387;42.672;23.334;2023-04-26T03:27:32;934.2;;;7.8;100.0
40013;BME280;37387;42.672;23.334;2023-04-26T03:32:32;934.3;;;7.7;100.0
40013;BME280;37387;42.672;23.334;2023-04-26T03:34:32;934.3;;;7.8;100.0
40013;BME280;37387;42.672;23.334;2023-04-26T03:37:32;934.3;;;7.7;100.0
40013;BME280;37387;42.672;23.334;2023-04-26T03:39:32;934.2;;;7.8;100.0
40013;BME280;37387;42.672;23.334;2023-04-26T03:42:32;934.2;;;7.7;100.0
40013;BME280;37387;42.672;23.334;2023-04-26T03:46:32;934.3;;;7.6;100.0
40013;BME280;37387;42.672;23.334;2023-04-26T03:47:32;934.3;;;7.7;100.0
40013;BME280;37387;42.672;23.334;2023-04-26T03:48:32;934.3;;;7.8;100.0
40013;BME280;37387;42.672;23.334;2023-04-26T03:49:32;934.3;;;7.9;100.0
40013;BME280;37387;42.672;23.334;2023-04-26T03:50:32;934.4;;;8.1;100.0
40013;BME280;37387;42.672;23.334;2023-04-26T03:51:32;934.4;;;8.2;100.0
40013;BME280;37387;42.672;23.334;2023-04-26T03:52:32;934.4;;;8.3;100.0
40013;BME280;37387;42.672;23.334;2023-04-26T03:53:32;934.4;;;8.5;100.0
40013;BME280;37387;42.672;23.334;2023-04-26T03:56:32;934.4;;;8.7;100.0
40013;BME280;37387;42.672;23.334;2023-04-26T03:59:32;934.4;;;8.8;100.0
40013;BME280;37387;42.672;23.334;2023-04-26T04:00:32;934.5;;;8.6;100.0
40013;BME280;37387;42.672;23.334;2023-04-26T04:04:32;934.5;;;8.8;100.0
40013;BME280;37387;42.672;23.334;2023-04-26T04:05:32;934.5;;;8.9;100.0
40013;BME280;37387;42.672;23.334;2023-04-26T04:07:32;934.5;;;9.1;100.0
40013;BME280;37387;42.672;23.334;2023-04-26T04:08:32;934.6;;;9.2;100.0
40013;BME280;37387;42.672;23.334;2023-04-26T04:09:32;934.6;;;9.3;100.0
40013;BME280;37387;42.672;23.334;2023-04-26T04:10:32;934.6;;;9.5;100.0
40013;BME280;37387;42.672;23.334;2023-04-26T04:11:32;934.6;;;9.6;100.0
40013;BME280;37387;42.672;23.334;2023-04-26T04:12:32;934.6;;;9.9;100.0
40013;BME280;37387;42.672;23.334;2023-04-26T04:13:32;934.6;;;10.3;100.0
40013;BME280;37387;42.672;23.334;2023-04-26T04:14:32;934.7;;;10.4;100.0
40013;BME280;37387;42.672;23.334;2023-04-26T04:16:32;934.7;;;10.1;100.0
40013;BME280;37387;42.672;23.334;2023-04-26T04:17:32;934.7;;;10.0;100.0
40013;BME280;37387;42.672;23.334;2023-04-26T04:18:32;934.7;;;9.7;100.0
40013;BME280;37387;42.672;23.334;2023-04-26T04:19:32;934.7;;;9.4;100.0
40013;BME280;37387;42.672;23.334;2023-04-26T04:21:32;934.7;;;9.6;100.0
40013;BME280;37387;42.672;23.334;2023-04-26T04:23:32;934.7;;;9.7;100.0
40013;BME280;37387;42.672;23.334;2023-04-26T04:25:32;934.8;;;9.8;100.0
40013;BME280;37387;42.672;23.334;2023-04-26T04:27:32;934.8;;;9.9;100.0
40013;BME280;37387;42.672;23.334;2023-04-26T04:28:32;934.9;;;9.8;100.0
40013;BME280;37387;42.672;23.334;2023-04-26T04:29:32;934.8;;;9.9;100.0
40013;BME280;37387;42.672;23.334;2023-04-26T04:30:32;934.8;;;10.1;100.0
40013;BME280;37387;42.672;23.334;2023-04-26T04:32:32;934.8;;;10.2;100.0
40013;BME280;37387;42.672;23.334;2023-04-26T04:33:32;934.8;;;10.4;100.0
40013;BME280;37387;42.672;23.334;2023-04-26T04:34:33;934.9;;;10.5;100.0
40013;BME280;37387;42.672;23.334;2023-04-26T04:35:32;934.9;;;10.7;100.0
40013;BME280;37387;42.672;23.334;2023-04-26T04:36:32;934.9;;;11.1;100.0
40013;BME280;37387;42.672;23.334;2023-04-26T04:37:32;934.9;;;11.5;100.0
40013;BME280;37387;42.672;23.334;2023-04-26T04:38:32;934.9;;;12.1;100.0
40013;BME280;37387;42.672;23.334;2023-04-26T04:39:32;934.9;;;12.4;100.0
40013;BME280;37387;42.672;23.334;2023-04-26T04:40:32;934.9;;;12.7;100.0
40013;BME280;37387;42.672;23.334;2023-04-26T04:41:32;934.9;;;12.4;100.0
40013;BME280;37387;42.672;23.334;2023-04-26T04:42:32;934.9;;;12.3;100.0
40013;BME280;37387;42.672;23.334;2023-04-26T04:43:32;935.0;;;12.6;100.0
40013;BME280;37387;42.672;23.334;2023-04-26T04:44:32;935.0;;;13.0;100.0
40013;BME280;37387;42.672;23.334;2023-04-26T04:45:32;935.0;;;13.3;100.0
40013;BME280;37387;42.672;23.334;2023-04-26T04:46:32;935.0;;;13.4;100.0
40013;BME280;37387;42.672;23.334;2023-04-26T04:47:32;935.0;;;12.7;100.0
40013;BME280;37387;42.672;23.334;2023-04-26T04:48:32;935.0;;;11.9;100.0
40013;BME280;37387;42.672;23.334;2023-04-26T04:50:32;934.9;;;11.8;100.0
40013;BME280;37387;42.672;23.334;2023-04-26T04:51:32;934.9;;;12.0;100.0
40013;BME280;37387;42.672;23.334;2023-04-26T04:52:33;935.0;;;12.3;100.0
40013;BME280;37387;42.672;23.334;2023-04-26T04:53:32;935.1;;;12.5;100.0
40013;BME280;37387;42.672;23.334;2023-04-26T04:54:32;935.1;;;12.7;100.0
40013;BME280;37387;42.672;23.334;2023-04-26T04:55:32;935.1;;;12.5;100.0
40013;BME280;37387;42.672;23.334;2023-04-26T04:56:32;935.1;;;12.4;100.0
40013;BME280;37387;42.672;23.334;2023-04-26T04:57:32;935.0;;;12.5;100.0
40013;BME280;37387;42.672;23.334;2023-04-26T04:58:32;935.1;;;12.4;100.0
40013;BME280;37387;42.672;23.334;2023-04-26T04:59:32;935.0;;;12.3;100.0
40013;BME280;37387;42.672;23.334;2023-04-26T05:00:32;935.0;;;12.4;100.0
40013;BME280;37387;42.672;23.334;2023-04-26T05:03:32;935.0;;;12.6;100.0
40013;BME280;37387;42.672;23.334;2023-04-26T05:04:32;935.1;;;12.5;100.0
40013;BME280;37387;42.672;23.334;2023-04-26T05:05:32;935.1;;;12.6;100.0
40013;BME280;37387;42.672;23.334;2023-04-26T05:06:32;935.1;;;12.7;100.0
40013;BME280;37387;42.672;23.334;2023-04-26T05:08:32;935.1;;;12.8;100.0
40013;BME280;37387;42.672;23.334;2023-04-26T05:09:32;935.1;;;13.0;100.0
40013;BME280;37387;42.672;23.334;2023-04-26T05:10:32;935.1;;;13.1;100.0
40013;BME280;37387;42.672;23.334;2023-04-26T05:12:32;935.1;;;12.5;100.0
40013;BME280;37387;42.672;23.334;2023-04-26T05:13:32;935.1;;;12.7;100.0
40013;BME280;37387;42.672;23.334;2023-04-26T05:15:32;935.1;;;13.1;100.0
40013;BME280;37387;42.672;23.334;2023-04-26T05:16:32;935.1;;;13.4;100.0
40013;BME280;37387;42.672;23.334;2023-04-26T05:17:32;935.1;;;13.7;100.0
40013;BME280;37387;42.672;23.334;2023-04-26T05:18:32;935.1;;;13.6;100.0
40013;BME280;37387;42.672;23.334;2023-04-26T05:19:32;935.1;;;13.4;100.0
40013;BME280;37387;42.672;23.334;2023-04-26T05:21:32;935.0;;;13.7;100.0
40013;BME280;37387;42.672;23.334;2023-04-26T05:22:32;935.1;;;13.6;100.0
40013;BME280;37387;42.672;23.334;2023-04-26T05:23:32;935.1;;;13.1;100.0
40013;BME280;37387;42.672;23.334;2023-04-26T05:24:32;935.1;;;12.9;100.0
40013;BME280;37387;42.672;23.334;2023-04-26T05:25:35;935.1;;;12.5;100.0
40013;BME280;37387;42.672;23.334;2023-04-26T05:26:33;935.1;;;12.1;100.0
40013;BME280;37387;42.672;23.334;2023-04-26T05:27:32;935.1;;;12.4;100.0
40013;BME280;37387;42.672;23.334;2023-04-26T05:28:32;935.1;;;12.6;100.0
40013;BME280;37387;42.672;23.334;2023-04-26T05:29:32;935.2;;;13.1;100.0
40013;BME280;37387;42.672;23.334;2023-04-26T05:30:32;935.2;;;13.4;100.0
40013;BME280;37387;42.672;23.334;2023-04-26T05:32:32;935.2;;;13.8;100.0
40013;BME280;37387;42.672;23.334;2023-04-26T05:33:32;935.2;;;13.9;100.0
40013;BME280;37387;42.672;23.334;2023-04-26T05:34:32;935.3;;;14.1;100.0
40013;BME280;37387;42.672;23.334;2023-04-26T05:35:32;935.3;;;14.3;100.0
40013;BME280;37387;42.672;23.334;2023-04-26T05:36:32;935.3;;;14.2;100.0
40013;BME280;37387;42.672;23.334;2023-04-26T05:37:32;935.3;;;14.1;98.6
40013;BME280;37387;42.672;23.334;2023-04-26T05:39:32;935.3;;;14.3;100.0
40013;BME280;37387;42.672;23.334;2023-04-26T05:40:32;935.3;;;14.7;100.0
40013;BME280;37387;42.672;23.334;2023-04-26T05:41:32;935.3;;;15.0;95.6
40013;BME280;37387;42.672;23.334;2023-04-26T05:42:32;935.3;;;15.4;93.9
40013;BME280;37387;42.672;23.334;2023-04-26T05:43:32;935.4;;;16.1;87.0
40013;BME280;37387;42.672;23.334;2023-04-26T05:44:32;935.4;;;16.6;72.2
40013;BME280;37387;42.672;23.334;2023-04-26T05:45:32;935.4;;;16.2;72.2
40013;BME280;37387;42.672;23.334;2023-04-26T05:46:32;935.4;;;15.6;71.4
40013;BME280;37387;42.672;23.334;2023-04-26T05:48:32;935.4;;;16.0;77.4
40013;BME280;37387;42.672;23.334;2023-04-26T05:49:32;935.4;;;16.1;76.5
40013;BME280;37387;42.672;23.334;2023-04-26T05:50:32;935.5;;;15.6;75.4
40013;BME280;37387;42.672;23.334;2023-04-26T05:51:32;935.4;;;15.3;75.4
40013;BME280;37387;42.672;23.334;2023-04-26T05:52:32;935.4;;;15.1;77.7
40013;BME280;37387;42.672;23.334;2023-04-26T05:53:32;935.4;;;15.4;79.3
40013;BME280;37387;42.672;23.334;2023-04-26T05:54:32;935.4;;;15.7;76.4
40013;BME280;37387;42.672;23.334;2023-04-26T05:55:32;935.4;;;15.2;73.0
40013;BME280;37387;42.672;23.334;2023-04-26T05:57:32;935.4;;;15.1;76.8
40013;BME280;37387;42.672;23.334;2023-04-26T05:58:32;935.4;;;14.8;78.3
40013;BME280;37387;42.672;23.334;2023-04-26T05:59:34;935.4;;;14.6;80.8
40013;BME280;37387;42.672;23.334;2023-04-26T06:00:32;935.4;;;14.3;80.8
40013;BME280;37387;42.672;23.334;2023-04-26T06:01:32;935.4;;;14.2;83.7
40013;BME280;37387;42.672;23.334;2023-04-26T06:02:32;935.4;;;13.8;86.7
40013;BME280;37387;42.672;23.334;2023-04-26T06:03:32;935.4;;;14.1;89.5
40013;BME280;37387;42.672;23.334;2023-04-26T06:04:32;935.4;;;14.5;87.3
40013;BME280;37387;42.672;23.334;2023-04-26T06:05:32;935.4;;;14.7;83.7
40013;BME280;37387;42.672;23.334;2023-04-26T06:06:32;935.5;;;15.0;83.1
40013;BME280;37387;42.672;23.334;2023-04-26T06:07:32;935.5;;;15.3;79.2
40013;BME280;37387;42.672;23.334;2023-04-26T06:08:32;935.4;;;15.1;80.2
40013;BME280;37387;42.672;23.334;2023-04-26T06:09:32;935.4;;;15.0;80.2
40013;BME280;37387;42.672;23.334;2023-04-26T06:10:34;935.4;;;14.9;79.3
40013;BME280;37387;42.672;23.334;2023-04-26T06:11:32;935.4;;;14.8;79.6
40013;BME280;37387;42.672;23.334;2023-04-26T06:13:32;935.4;;;14.7;79.3
40013;BME280;37387;42.672;23.334;2023-04-26T06:14:32;935.4;;;14.9;80.4
40013;BME280;37387;42.672;23.334;2023-04-26T06:15:32;935.4;;;15.6;82.2
40013;BME280;37387;42.672;23.334;2023-04-26T06:16:32;935.4;;;15.9;76.8
40013;BME280;37387;42.672;23.334;2023-04-26T06:17:32;935.4;;;16.7;67.7
40013;BME280;37387;42.672;23.334;2023-04-26T06:18:32;935.4;;;16.5;68.9
40013;BME280;37387;42.672;23.334;2023-04-26T06:19:32;935.4;;;16.9;68.9
40013;BME280;37387;42.672;23.334;2023-04-26T06:20:32;935.4;;;17.2;67.6
40013;BME280;37387;42.672;23.334;2023-04-26T06:21:32;935.4;;;16.9;66.6
40013;BME280;37387;42.672;23.334;2023-04-26T06:22:32;935.4;;;17.0;67.5
40013;BME280;37387;42.672;23.334;2023-04-26T06:23:32;935.4;;;17.4;66.9
40013;BME280;37387;42.672;23.334;2023-04-26T06:24:32;935.4;;;17.3;66.9
40013;BME280;37387;42.672;23.334;2023-04-26T06:25:32;935.5;;;18.4;68.8
40013;BME280;37387;42.672;23.334;2023-04-26T06:26:32;935.5;;;19.7;64.1
40013;BME280;37387;42.672;23.334;2023-04-26T06:27:32;935.5;;;20.9;53.4
40013;BME280;37387;42.672;23.334;2023-04-26T06:28:32;935.5;;;21.5;53.4
40013;BME280;37387;42.672;23.334;2023-04-26T06:29:32;935.5;;;21.4;52.7
40013;BME280;37387;42.672;23.334;2023-04-26T06:30:32;935.5;;;21.0;52.0
40013;BME280;37387;42.672;23.334;2023-04-26T06:31:32;935.5;;;19.3;52.0
40013;BME280;37387;42.672;23.334;2023-04-26T06:32:32;935.5;;;19.0;57.0
40013;BME280;37387;42.672;23.334;2023-04-26T06:33:32;935.4;;;18.3;57.9
40013;BME280;37387;42.672;23.334;2023-04-26T06:34:32;935.4;;;18.0;61.0
40013;BME280;37387;42.672;23.334;2023-04-26T06:35:34;935.4;;;17.6;61.0
40013;BME280;37387;42.672;23.334;2023-04-26T06:36:32;935.4;;;17.3;61.7
40013;BME280;37387;42.672;23.334;2023-04-26T06:37:33;935.4;;;17.0;62.7
40013;BME280;37387;42.672;23.334;2023-04-26T06:38:32;935.4;;;16.4;63.1
40013;BME280;37387;42.672;23.334;2023-04-26T06:40:33;935.4;;;16.5;66.6
40013;BME280;37387;42.672;23.334;2023-04-26T06:41:32;935.4;;;16.2;66.6
40013;BME280;37387;42.672;23.334;2023-04-26T06:42:32;935.4;;;16.1;68.6
40013;BME280;37387;42.672;23.334;2023-04-26T06:43:32;935.4;;;15.9;68.6
40013;BME280;37387;42.672;23.334;2023-04-26T06:44:32;935.4;;;15.7;70.7
40013;BME280;37387;42.672;23.334;2023-04-26T06:45:32;935.4;;;15.5;71.1
40013;BME280;37387;42.672;23.334;2023-04-26T06:46:32;935.4;;;15.8;72.8
40013;BME280;37387;42.672;23.334;2023-04-26T06:47:32;935.5;;;15.2;72.3
40013;BME280;37387;42.672;23.334;2023-04-26T06:48:32;935.3;;;14.3;70.7
40013;BME280;37387;42.672;23.334;2023-04-26T06:49:32;935.4;;;13.8;72.2
40013;BME280;37387;42.672;23.334;2023-04-26T06:50:32;935.4;;;13.5;72.7
40013;BME280;37387;42.672;23.334;2023-04-26T06:51:32;935.4;;;13.1;74.3
40013;BME280;37387;42.672;23.334;2023-04-26T06:52:32;935.4;;;13.2;78.1
40013;BME280;37387;42.672;23.334;2023-04-26T06:53:32;935.4;;;13.7;78.1
40013;BME280;37387;42.672;23.334;2023-04-26T06:54:32;935.4;;;14.1;76.9
40013;BME280;37387;42.672;23.334;2023-04-26T06:55:32;935.5;;;14.7;73.3
40013;BME280;37387;42.672;23.334;2023-04-26T06:56:32;935.5;;;15.0;67.7
40013;BME280;37387;42.672;23.334;2023-04-26T06:57:32;935.5;;;15.8;67.7
40013;BME280;37387;42.672;23.334;2023-04-26T06:58:32;935.5;;;16.2;65.9
40013;BME280;37387;42.672;23.334;2023-04-26T06:59:32;935.4;;;16.6;62.1
40013;BME280;37387;42.672;23.334;2023-04-26T07:00:32;935.4;;;16.2;62.1
40013;BME280;37387;42.672;23.334;2023-04-26T07:01:33;935.5;;;15.7;62.5
40013;BME280;37387;42.672;23.334;2023-04-26T07:02:32;935.4;;;15.8;63.2
40013;BME280;37387;42.672;23.334;2023-04-26T07:03:32;935.4;;;15.9;63.2
40013;BME280;37387;42.672;23.334;2023-04-26T07:04:32;935.5;;;15.7;61.7
40013;BME280;37387;42.672;23.334;2023-04-26T07:05:32;935.5;;;16.1;62.8
40013;BME280;37387;42.672;23.334;2023-04-26T07:06:32;935.5;;;16.7;61.3
40013;BME280;37387;42.672;23.334;2023-04-26T07:07:32;935.6;;;17.0;59.2
40013;BME280;37387;42.672;23.334;2023-04-26T07:08:32;935.6;;;16.8;59.2
40013;BME280;37387;42.672;23.334;2023-04-26T07:09:32;935.5;;;16.4;61.0
40013;BME280;37387;42.672;23.334;2023-04-26T07:10:32;935.5;;;16.3;61.0
40013;BME280;37387;42.672;23.334;2023-04-26T07:11:32;935.5;;;15.7;60.5
40013;BME280;37387;42.672;23.334;2023-04-26T07:12:32;935.5;;;15.5;64.1
40013;BME280;37387;42.672;23.334;2023-04-26T07:13:32;935.5;;;15.4;64.2
40013;BME280;37387;42.672;23.334;2023-04-26T07:14:32;935.5;;;15.6;64.2
40013;BME280;37387;42.672;23.334;2023-04-26T07:16:32;935.5;;;15.8;64.6
40013;BME280;37387;42.672;23.334;2023-04-26T07:17:32;935.5;;;15.5;64.6
40013;BME280;37387;42.672;23.334;2023-04-26T07:18:33;935.5;;;15.3;63.8
40013;BME280;37387;42.672;23.334;2023-04-26T07:19:32;935.5;;;15.1;65.7
40013;BME280;37387;42.672;23.334;2023-04-26T07:21:32;935.5;;;15.0;66.4
40013;BME280;37387;42.672;23.334;2023-04-26T07:22:32;935.5;;;15.2;66.4
40013;BME280;37387;42.672;23.334;2023-04-26T07:23:33;935.6;;;15.4;65.7
40013;BME280;37387;42.672;23.334;2023-04-26T07:24:32;935.6;;;15.5;64.6
40013;BME280;37387;42.672;23.334;2023-04-26T07:25:32;935.6;;;15.8;64.6
40013;BME280;37387;42.672;23.334;2023-04-26T07:26:33;935.6;;;15.9;62.4
40013;BME280;37387;42.672;23.334;2023-04-26T07:29:32;935.5;;;16.1;61.2
40013;BME280;37387;42.672;23.334;2023-04-26T07:30:32;935.5;;;16.6;61.2
40013;BME280;37387;42.672;23.334;2023-04-26T07:31:32;935.5;;;17.0;59.1
40013;BME280;37387;42.672;23.334;2023-04-26T07:32:32;935.5;;;17.7;56.1
40013;BME280;37387;42.672;23.334;2023-04-26T07:33:32;935.5;;;17.3;56.1
40013;BME280;37387;42.672;23.334;2023-04-26T07:35:32;935.6;;;17.8;55.6
40013;BME280;37387;42.672;23.334;2023-04-26T07:36:32;935.6;;;17.9;54.7
40013;BME280;37387;42.672;23.334;2023-04-26T07:37:32;935.6;;;18.2;54.7
40013;BME280;37387;42.672;23.334;2023-04-26T07:38:32;935.6;;;17.8;54.7
40013;BME280;37387;42.672;23.334;2023-04-26T07:40:32;935.7;;;17.3;55.8
40013;BME280;37387;42.672;23.334;2023-04-26T07:42:32;935.7;;;17.1;54.9
40013;BME280;37387;42.672;23.334;2023-04-26T07:43:32;935.7;;;16.5;54.5
40013;BME280;37387;42.672;23.334;2023-04-26T07:44:32;935.7;;;16.4;55.9
40013;BME280;37387;42.672;23.334;2023-04-26T07:45:32;935.6;;;16.5;56.9
40013;BME280;37387;42.672;23.334;2023-04-26T07:46:32;935.6;;;15.7;56.1
40013;BME280;37387;42.672;23.334;2023-04-26T07:47:32;935.6;;;14.6;58.9
40013;BME280;37387;42.672;23.334;2023-04-26T07:48:32;935.5;;;14.0;62.9
40013;BME280;37387;42.672;23.334;2023-04-26T07:49:32;935.6;;;13.9;65.5
40013;BME280;37387;42.672;23.334;2023-04-26T07:50:32;935.6;;;14.0;65.9
40013;BME280;37387;42.672;23.334;2023-04-26T07:51:33;935.6;;;14.2;66.0
40013;BME280;37387;42.672;23.334;2023-04-26T07:52:32;935.7;;;14.5;64.9
40013;BME280;37387;42.672;23.334;2023-04-26T07:55:32;935.6;;;14.2;65.1
40013;BME280;37387;42.672;23.334;2023-04-26T07:56:32;935.6;;;13.8;65.1
40013;BME280;37387;42.672;23.334;2023-04-26T07:57:32;935.7;;;14.1;65.6
40013;BME280;37387;42.672;23.334;2023-04-26T07:58:32;935.7;;;14.0;64.0
40013;BME280;37387;42.672;23.334;2023-04-26T07:59:32;935.6;;;13.9;62.8
40013;BME280;37387;42.672;23.334;2023-04-26T08:00:32;935.7;;;14.2;63.9
40013;BME280;37387;42.672;23.334;2023-04-26T08:01:32;935.7;;;14.5;62.5
40013;BME280;37387;42.672;23.334;2023-04-26T08:02:32;935.7;;;14.3;62.5
40013;BME280;37387;42.672;23.334;2023-04-26T08:03:32;935.6;;;13.9;63.0
40013;BME280;37387;42.672;23.334;2023-04-26T08:05:32;935.7;;;14.3;65.0
40013;BME280;37387;42.672;23.334;2023-04-26T08:06:32;935.7;;;14.8;63.2
40013;BME280;37387;42.672;23.334;2023-04-26T08:07:33;935.6;;;14.7;62.7
40013;BME280;37387;42.672;23.334;2023-04-26T08:08:32;935.6;;;14.8;62.8
40013;BME280;37387;42.672;23.334;2023-04-26T08:09:32;935.7;;;15.1;62.6
40013;BME280;37387;42.672;23.334;2023-04-26T08:10:32;935.7;;;15.4;61.0
40013;BME280;37387;42.672;23.334;2023-04-26T08:11:32;935.6;;;14.4;60.0
40013;BME280;37387;42.672;23.334;2023-04-26T08:12:33;935.7;;;14.7;61.4
40013;BME280;37387;42.672;23.334;2023-04-26T08:13:32;935.7;;;14.9;61.4
40013;BME280;37387;42.672;23.334;2023-04-26T08:14:33;935.7;;;14.7;61.8
40013;BME280;37387;42.672;23.334;2023-04-26T08:15:32;935.8;;;15.5;59.7
40013;BME280;37387;42.672;23.334;2023-04-26T08:16:32;935.8;;;16.1;59.7
40013;BME280;37387;42.672;23.334;2023-04-26T08:17:32;935.7;;;16.6;57.6
40013;BME280;37387;42.672;23.334;2023-04-26T08:18:32;935.7;;;16.5;54.8
40013;BME280;37387;42.672;23.334;2023-04-26T08:19:32;935.7;;;16.8;54.6
40013;BME280;37387;42.672;23.334;2023-04-26T08:21:32;935.8;;;17.0;53.6
40013;BME280;37387;42.672;23.334;2023-04-26T08:22:32;935.8;;;17.2;53.6
40013;BME280;37387;42.672;23.334;2023-04-26T08:23:33;935.8;;;17.5;51.9
40013;BME280;37387;42.672;23.334;2023-04-26T08:24:32;935.8;;;17.6;51.5
40013;BME280;37387;42.672;23.334;2023-04-26T08:25:32;935.8;;;17.7;51.5
40013;BME280;37387;42.672;23.334;2023-04-26T08:26:32;935.8;;;17.9;51.1
40013;BME280;37387;42.672;23.334;2023-04-26T08:27:32;935.8;;;17.7;51.1
40013;BME280;37387;42.672;23.334;2023-04-26T08:28:32;935.7;;;17.6;52.3
40013;BME280;37387;42.672;23.334;2023-04-26T08:29:32;935.7;;;17.7;52.0
40013;BME280;37387;42.672;23.334;2023-04-26T08:30:32;935.7;;;17.5;52.2
40013;BME280;37387;42.672;23.334;2023-04-26T08:31:32;935.7;;;17.2;51.9
40013;BME280;37387;42.672;23.334;2023-04-26T08:32:32;935.7;;;17.1;53.0
40013;BME280;37387;42.672;23.334;2023-04-26T08:33:32;935.7;;;17.3;53.8
40013;BME280;37387;42.672;23.334;2023-04-26T08:34:32;935.7;;;16.6;53.6
40013;BME280;37387;42.672;23.334;2023-04-26T08:36:34;935.6;;;16.4;55.5
40013;BME280;37387;42.672;23.334;2023-04-26T08:37:32;935.6;;;15.9;55.5
40013;BME280;37387;42.672;23.334;2023-04-26T08:38:32;935.8;;;16.0;57.1
40013;BME280;37387;42.672;23.334;2023-04-26T08:39:32;935.6;;;16.1;58.5
40013;BME280;37387;42.672;23.334;2023-04-26T08:41:35;935.7;;;16.2;58.1
40013;BME280;37387;42.672;23.334;2023-04-26T08:44:33;935.7;;;16.0;57.0
40013;BME280;37387;42.672;23.334;2023-04-26T08:46:34;935.8;;;15.5;56.2
40013;BME280;37387;42.672;23.334;2023-04-26T08:47:34;935.8;;;15.9;57.5
40013;BME280;37387;42.672;23.334;2023-04-26T08:48:32;935.7;;;15.4;58.2
40013;BME280;37387;42.672;23.334;2023-04-26T08:49:36;935.8;;;15.8;58.2
40013;BME280;37387;42.672;23.334;2023-04-26T08:50:32;935.8;;;15.7;57.9
40013;BME280;37387;42.672;23.334;2023-04-26T08:51:32;935.7;;;15.2;58.8
40013;BME280;37387;42.672;23.334;2023-04-26T08:52:32;935.7;;;15.5;58.8
40013;BME280;37387;42.672;23.334;2023-04-26T08:53:33;935.8;;;15.9;57.9
40013;BME280;37387;42.672;23.334;2023-04-26T08:54:33;935.8;;;15.8;57.3
40013;BME280;37387;42.672;23.334;2023-04-26T08:55:32;935.8;;;15.7;57.2
40013;BME280;37387;42.672;23.334;2023-04-26T08:56:32;935.8;;;15.6;57.0
40013;BME280;37387;42.672;23.334;2023-04-26T08:57:32;935.8;;;15.7;57.4
40013;BME280;37387;42.672;23.334;2023-04-26T08:58:32;935.8;;;15.6;57.7
40013;BME280;37387;42.672;23.334;2023-04-26T08:59:33;935.8;;;15.7;56.9
40013;BME280;37387;42.672;23.334;2023-04-26T09:00:32;935.8;;;15.5;56.9
40013;BME280;37387;42.672;23.334;2023-04-26T09:01:32;935.8;;;15.3;57.3
40013;BME280;37387;42.672;23.334;2023-04-26T09:02:32;935.8;;;15.1;58.6
40013;BME280;37387;42.672;23.334;2023-04-26T09:03:32;935.8;;;15.3;57.7
40013;BME280;37387;42.672;23.334;2023-04-26T09:04:32;935.8;;;15.4;57.7
40013;BME280;37387;42.672;23.334;2023-04-26T09:05:33;935.8;;;15.3;57.9
40013;BME280;37387;42.672;23.334;2023-04-26T09:06:32;935.8;;;14.8;58.6
40013;BME280;37387;42.672;23.334;2023-04-26T09:07:34;935.8;;;14.9;58.6
40013;BME280;37387;42.672;23.334;2023-04-26T09:08:32;935.8;;;15.1;59.1